Time;durP1;ratioP1;P1;durP2;ratioP2;P2;SDS_P1;SDS_P2;PMS_P1;PMS_P2;Temp;Humidity;BMP_temperature;BMP_pressure;BME280_temperature;BME280_humidity;BME280_pressure;Samples;Min_cycle;Max_cycle;Signal;HPM_P1;HPM_P2
2023/08/20 00:00:29;;;;;;;33.67;13.02;;;16.60;99.90;;;;;;5053024;28;20045;-73
2023/08/20 00:03:03;;;;;;;37.90;13.90;;;16.60;99.90;;;;;;5051875;28;20072;-71
2023/08/20 00:05:32;;;;;;;40.08;14.18;;;16.50;99.90;;;;;;5068847;28;20071;-72
2023/08/20 00:07:57;;;;;;;36.05;14.15;;;16.50;99.90;;;;;;5052218;28;20040;-72
2023/08/20 00:10:23;;;;;;;35.13;13.33;;;16.50;99.90;;;;;;5055401;28;20044;-72
2023/08/20 00:12:49;;;;;;;35.13;13.73;;;16.50;99.90;;;;;;5056170;28;20047;-72
2023/08/20 00:15:15;;;;;;;38.73;14.33;;;16.50;99.90;;;;;;5055275;28;20132;-72
2023/08/20 00:17:41;;;;;;;39.23;14.17;;;16.50;99.90;;;;;;5056409;28;20135;-72
2023/08/20 00:20:12;;;;;;;37.38;14.07;;;16.50;99.90;;;;;;5056294;28;20122;-72
2023/08/20 00:22:42;;;;;;;31.83;13.63;;;16.50;99.90;;;;;;5055441;28;20397;-73
2023/08/20 00:25:08;;;;;;;37.03;13.80;;;16.40;99.90;;;;;;5056130;28;20401;-73
2023/08/20 00:27:34;;;;;;;30.55;13.68;;;16.40;99.90;;;;;;5056141;28;20477;-71
2023/08/20 00:30:00;;;;;;;32.07;13.20;;;16.40;99.90;;;;;;5056313;28;20051;-72
2023/08/20 00:32:26;;;;;;;36.13;14.70;;;16.40;99.90;;;;;;5056167;28;20378;-72
2023/08/20 00:34:51;;;;;;;30.90;13.97;;;16.30;99.90;;;;;;5056128;28;20120;-73
2023/08/20 00:37:17;;;;;;;40.53;14.20;;;16.30;99.90;;;;;;5055007;28;20114;-72
2023/08/20 00:39:43;;;;;;;30.48;14.32;;;16.30;99.90;;;;;;5054957;28;20128;-73
2023/08/20 00:42:09;;;;;;;33.15;13.68;;;16.20;99.90;;;;;;5055008;28;20059;-73
2023/08/20 00:44:35;;;;;;;27.07;12.93;;;16.20;99.90;;;;;;5054956;28;20045;-72
2023/08/20 00:47:03;;;;;;;32.20;14.00;;;16.20;99.90;;;;;;5071612;28;20053;-73
2023/08/20 00:49:29;;;;;;;40.70;14.45;;;16.10;99.90;;;;;;5056242;28;20053;-73
2023/08/20 00:51:55;;;;;;;;;;;16.10;99.90;;;;;;5055090;28;20052;-73
2023/08/20 00:54:22;;;;;;;38.63;14.27;;;16.10;99.90;;;;;;5056485;28;20308;-73
2023/08/20 00:56:49;;;;;;;;;;;16.10;99.90;;;;;;5056117;28;20133;-73
2023/08/20 00:59:15;;;;;;;45.28;15.63;;;16.10;99.90;;;;;;5054055;28;19921;-72
2023/08/20 01:01:40;;;;;;;44.00;16.13;;;16.10;99.90;;;;;;5055456;28;20052;-72
2023/08/20 01:04:06;;;;;;;38.47;14.65;;;16.00;99.90;;;;;;5055029;28;20049;-73
2023/08/20 01:06:53;;;;;;;39.97;16.43;;;16.00;99.90;;;;;;5055720;28;20492;-73
2023/08/20 01:09:34;;;;;;;38.95;15.38;;;15.90;99.90;;;;;;5054257;28;20053;-73
2023/08/20 01:12:03;;;;;;;44.20;16.65;;;15.90;99.90;;;;;;5055187;28;20045;-72
2023/08/20 01:14:29;;;;;;;38.17;16.13;;;15.90;99.90;;;;;;5054126;28;20102;-73
2023/08/20 01:16:54;;;;;;;36.65;15.13;;;15.90;99.90;;;;;;5055339;28;20044;-73
2023/08/20 01:19:22;;;;;;;38.13;16.02;;;15.80;99.90;;;;;;5055201;28;20049;-73
2023/08/20 01:22:43;;;;;;;41.53;16.52;;;15.90;99.90;;;;;;5054736;28;20128;-73
2023/08/20 01:25:32;;;;;;;42.72;17.02;;;15.90;99.90;;;;;;5046964;28;20108;-72
2023/08/20 01:27:57;;;;;;;39.45;16.13;;;15.90;99.90;;;;;;5088485;28;20374;-73
2023/08/20 01:30:24;;;;;;;48.42;16.83;;;15.80;99.90;;;;;;5055830;28;20056;-73
2023/08/20 01:32:53;;;;;;;41.58;16.27;;;15.80;99.90;;;;;;5054991;28;20064;-72
2023/08/20 01:35:19;;;;;;;39.05;17.27;;;15.80;99.90;;;;;;5054600;28;20493;-72
2023/08/20 01:37:45;;;;;;;35.80;16.00;;;15.70;99.90;;;;;;5087535;28;20057;-73
2023/08/20 01:40:11;;;;;;;43.03;17.13;;;15.70;99.90;;;;;;5053864;28;20056;-73
2023/08/20 01:42:37;;;;;;;41.38;16.73;;;15.70;99.90;;;;;;5053809;28;20041;-72
2023/08/20 01:45:04;;;;;;;35.92;16.25;;;15.70;99.90;;;;;;5036793;28;20041;-73
2023/08/20 01:47:30;;;;;;;44.88;16.88;;;15.70;99.90;;;;;;5037477;28;20098;-73
2023/08/20 01:49:56;;;;;;;44.55;17.48;;;15.70;99.90;;;;;;5054974;28;20041;-72
2023/08/20 01:52:21;;;;;;;46.03;18.77;;;15.80;99.90;;;;;;5054748;28;20045;-73
2023/08/20 01:54:49;;;;;;;61.10;25.77;;;15.80;99.90;;;;;;5054758;28;20051;-73
2023/08/20 01:57:14;;;;;;;43.08;18.50;;;15.80;99.90;;;;;;5054428;28;20549;-71
2023/08/20 01:59:40;;;;;;;47.78;18.25;;;15.80;99.90;;;;;;5053677;28;20124;-73
2023/08/20 02:02:06;;;;;;;50.22;17.25;;;15.80;99.90;;;;;;5054770;28;20084;-72
2023/08/20 02:04:32;;;;;;;43.95;18.95;;;15.80;99.90;;;;;;5054697;28;20393;-73
2023/08/20 02:06:58;;;;;;;54.50;22.98;;;15.80;99.90;;;;;;5038140;28;20092;-72
2023/08/20 02:09:24;;;;;;;57.90;21.57;;;15.70;99.90;;;;;;5023568;28;20049;-72
2023/08/20 02:11:50;;;;;;;48.47;20.88;;;15.60;99.90;;;;;;5057959;28;20469;-72
2023/08/20 02:14:16;;;;;;;40.70;18.08;;;15.60;99.90;;;;;;5040173;28;20041;-72
2023/08/20 02:16:42;;;;;;;41.17;18.35;;;15.60;99.90;;;;;;5055568;28;20084;-73
2023/08/20 02:19:08;;;;;;;44.03;18.93;;;15.60;99.90;;;;;;5056087;28;20052;-74
2023/08/20 02:21:34;;;;;;;43.33;19.17;;;15.50;99.90;;;;;;5054931;28;20066;-74
2023/08/20 02:24:00;;;;;;;45.87;20.20;;;15.60;99.90;;;;;;5054956;28;20437;-73
2023/08/20 02:26:26;;;;;;;42.28;19.25;;;15.60;99.90;;;;;;5054227;28;20045;-73
2023/08/20 02:28:51;;;;;;;42.20;19.42;;;15.60;99.90;;;;;;5054590;28;20470;-72
2023/08/20 02:31:17;;;;;;;47.55;18.50;;;15.60;99.90;;;;;;5086305;28;20131;-73
2023/08/20 02:33:43;;;;;;;46.37;19.03;;;15.70;99.90;;;;;;5054464;28;20140;-72
2023/08/20 02:36:09;;;;;;;44.17;17.88;;;15.70;99.90;;;;;;5054793;28;20063;-73
2023/08/20 02:38:35;;;;;;;39.13;17.63;;;15.60;99.90;;;;;;5069614;28;20464;-73
2023/08/20 02:41:04;;;;;;;46.35;19.08;;;15.60;99.90;;;;;;5053321;28;20045;-73
2023/08/20 02:43:30;;;;;;;48.33;18.05;;;15.60;99.90;;;;;;5053371;28;20380;-73
2023/08/20 02:45:56;;;;;;;43.83;18.63;;;15.60;99.90;;;;;;5053694;28;20053;-73
2023/08/20 02:48:26;;;;;;;38.53;17.90;;;15.60;99.90;;;;;;5053644;28;20128;-73
2023/08/20 02:50:53;;;;;;;45.13;17.77;;;15.50;99.90;;;;;;5054174;28;20060;-72
2023/08/20 02:53:20;;;;;;;43.92;18.20;;;15.60;99.90;;;;;;5053577;28;20072;-73
2023/08/20 02:55:46;;;;;;;45.70;18.27;;;15.60;99.90;;;;;;5053617;28;20057;-72
2023/08/20 02:58:11;;;;;;;43.03;18.00;;;15.50;99.90;;;;;;5053713;28;20045;-73
2023/08/20 03:00:37;;;;;;;45.55;17.42;;;15.50;99.90;;;;;;5052409;28;20052;-73
2023/08/20 03:03:08;;;;;;;50.03;18.77;;;15.50;99.90;;;;;;5052506;28;20045;-74
2023/08/20 03:05:34;;;;;;;42.83;17.05;;;15.50;99.90;;;;;;5053936;28;20068;-74
2023/08/20 03:08:00;;;;;;;45.22;17.77;;;15.50;99.90;;;;;;5054941;28;20059;-74
2023/08/20 03:10:31;;;;;;;41.47;17.63;;;15.50;99.90;;;;;;5054405;28;20099;-73
2023/08/20 03:12:57;;;;;;;43.35;18.65;;;15.50;99.90;;;;;;5056120;28;20135;-72
2023/08/20 03:15:23;;;;;;;43.65;17.92;;;15.50;99.90;;;;;;5054899;28;20044;-72
2023/08/20 03:17:49;;;;;;;44.90;17.33;;;15.50;99.90;;;;;;5057833;28;20087;-73
2023/08/20 03:20:14;;;;;;;46.65;18.08;;;15.50;99.90;;;;;;5062433;28;20055;-73
2023/08/20 03:22:40;;;;;;;46.35;18.13;;;15.50;99.90;;;;;;5058193;28;20079;-73
2023/08/20 03:25:06;;;;;;;43.13;18.65;;;15.50;99.90;;;;;;5047232;28;20381;-73
2023/08/20 03:27:32;;;;;;;45.72;19.30;;;15.40;99.90;;;;;;5093865;28;20101;-74
2023/08/20 03:29:58;;;;;;;63.58;20.00;;;15.50;99.90;;;;;;5058350;28;20438;-72
2023/08/20 03:32:24;;;;;;;47.00;20.40;;;15.50;99.90;;;;;;5053654;28;20052;-73
2023/08/20 03:34:50;;;;;;;53.63;20.15;;;15.50;99.90;;;;;;5053996;28;20045;-72
2023/08/20 03:37:16;;;;;;;52.27;20.47;;;15.50;99.90;;;;;;5053662;28;20517;-72
2023/08/20 03:39:42;;;;;;;52.70;20.70;;;15.50;99.90;;;;;;5052350;28;20438;-73
2023/08/20 03:42:08;;;;;;;51.97;20.42;;;15.50;99.90;;;;;;5052638;28;20048;-72
2023/08/20 03:44:33;;;;;;;50.65;19.83;;;15.40;99.90;;;;;;5055132;28;20041;-73
2023/08/20 03:46:59;;;;;;;53.45;21.27;;;15.40;99.90;;;;;;5057077;28;20194;-72
2023/08/20 03:49:25;;;;;;;52.55;21.45;;;15.40;99.90;;;;;;5056957;28;20053;-73
2023/08/20 03:51:50;;;;;;;47.58;21.17;;;15.40;99.90;;;;;;5038744;28;20131;-73
2023/08/20 03:54:16;;;;;;;47.50;20.70;;;15.30;99.90;;;;;;5056969;28;20041;-73
2023/08/20 03:56:43;;;;;;;52.72;21.17;;;15.30;99.90;;;;;;5056791;28;20052;-73
2023/08/20 03:59:09;;;;;;;50.28;20.75;;;15.30;99.90;;;;;;5055949;28;20485;-71
2023/08/20 04:01:36;;;;;;;49.35;21.48;;;15.30;99.90;;;;;;5056970;28;20084;-72
2023/08/20 04:04:03;;;;;;;;;;;15.30;99.90;;;;;;5056364;28;20051;-72
2023/08/20 04:06:28;;;;;;;51.50;21.27;;;15.30;99.90;;;;;;5056136;28;19921;-73
2023/08/20 04:08:54;;;;;;;52.28;21.77;;;15.30;99.90;;;;;;5056630;28;20114;-73
2023/08/20 04:11:20;;;;;;;50.60;21.25;;;15.30;99.90;;;;;;5057156;28;20111;-73
2023/08/20 04:13:45;;;;;;;61.45;20.95;;;15.30;99.90;;;;;;5056018;28;20087;-73
2023/08/20 04:16:11;;;;;;;55.10;22.13;;;15.30;99.90;;;;;;5055306;28;20087;-73
2023/08/20 04:18:37;;;;;;;54.90;22.67;;;15.30;99.90;;;;;;5055090;28;20102;-73
2023/08/20 04:21:02;;;;;;;52.80;21.33;;;15.20;99.90;;;;;;5056090;28;20107;-73
2023/08/20 04:23:28;;;;;;;57.63;21.08;;;15.20;99.90;;;;;;5038631;28;20448;-73
2023/08/20 04:25:54;;;;;;;58.53;21.75;;;15.20;99.90;;;;;;5055306;28;20045;-73
2023/08/20 04:28:19;;;;;;;52.20;21.30;;;15.20;99.90;;;;;;5056290;28;20060;-73
2023/08/20 04:30:45;;;;;;;62.90;23.10;;;15.20;99.90;;;;;;5056539;28;20169;-73
2023/08/20 04:33:11;;;;;;;56.20;21.20;;;15.20;99.90;;;;;;5055052;28;20171;-73
2023/08/20 04:35:36;;;;;;;51.80;22.05;;;15.20;99.90;;;;;;5056061;28;20118;-73
2023/08/20 04:38:03;;;;;;;59.47;22.55;;;15.10;99.90;;;;;;5055874;28;20045;-72
2023/08/20 04:40:28;;;;;;;50.75;20.45;;;15.10;99.90;;;;;;5056579;28;20048;-72
2023/08/20 04:42:54;;;;;;;52.57;22.27;;;15.20;99.90;;;;;;5055982;28;20056;-74
2023/08/20 04:45:20;;;;;;;48.47;21.42;;;15.20;99.90;;;;;;5055044;28;20061;-74
2023/08/20 04:47:46;;;;;;;56.67;21.20;;;15.20;99.90;;;;;;5054931;28;20132;-74
2023/08/20 04:50:13;;;;;;;52.70;21.77;;;15.20;99.90;;;;;;5054375;28;20128;-74
2023/08/20 04:52:39;;;;;;;54.35;21.27;;;15.20;99.90;;;;;;5088285;28;20041;-73
2023/08/20 04:55:08;;;;;;;49.58;21.00;;;15.20;99.90;;;;;;5054615;28;20060;-73
2023/08/20 04:57:34;;;;;;;50.63;22.05;;;15.20;99.90;;;;;;5054550;28;20045;-73
2023/08/20 05:00:00;;;;;;;49.70;20.52;;;15.30;99.90;;;;;;5054559;28;20495;-72
2023/08/20 05:02:26;;;;;;;51.03;20.40;;;15.30;99.90;;;;;;5055623;28;20558;-73
2023/08/20 05:04:51;;;;;;;50.53;20.23;;;15.40;99.90;;;;;;5055429;28;20474;-73
2023/08/20 05:07:17;;;;;;;43.28;19.45;;;15.50;99.90;;;;;;5056200;28;20539;-73
2023/08/20 05:09:43;;;;;;;51.55;20.60;;;15.50;99.90;;;;;;5054525;28;20049;-73
2023/08/20 05:12:09;;;;;;;47.58;19.33;;;15.40;99.90;;;;;;5055630;28;20106;-74
2023/08/20 05:14:35;;;;;;;44.83;18.48;;;15.40;99.90;;;;;;5087942;28;20088;-73
2023/08/20 05:17:00;;;;;;;42.27;19.17;;;15.40;99.90;;;;;;5054301;28;20084;-74
2023/08/20 05:19:26;;;;;;;46.03;18.87;;;15.50;99.90;;;;;;5055347;28;20049;-74
2023/08/20 05:21:55;;;;;;;47.78;19.48;;;15.50;99.90;;;;;;5055557;28;20045;-73
2023/08/20 05:24:22;;;;;;;43.38;18.65;;;15.50;99.90;;;;;;5054009;28;20053;-74
2023/08/20 05:27:07;;;;;;;51.15;19.65;;;15.60;99.90;;;;;;5037611;28;20493;-73
2023/08/20 05:29:33;;;;;;;50.47;20.88;;;15.60;99.90;;;;;;5055704;28;20045;-74
2023/08/20 05:31:59;;;;;;;46.03;20.42;;;15.70;99.90;;;;;;5054874;28;20350;-73
2023/08/20 05:34:24;;;;;;;45.50;18.90;;;15.70;99.90;;;;;;5054411;28;20048;-74
2023/08/20 05:36:50;;;;;;;41.57;18.83;;;15.70;99.90;;;;;;5054915;28;20161;-72
2023/08/20 05:39:16;;;;;;;45.40;19.40;;;15.90;99.90;;;;;;5053832;28;20119;-72
2023/08/20 05:41:41;;;;;;;43.10;17.63;;;15.90;99.90;;;;;;5053651;28;20048;-72
2023/08/20 05:44:07;;;;;;;40.80;18.23;;;16.00;99.90;;;;;;5055339;28;20041;-72
2023/08/20 05:46:33;;;;;;;48.13;18.33;;;16.10;99.90;;;;;;5054793;28;20497;-72
2023/08/20 05:48:58;;;;;;;44.57;18.63;;;16.20;99.90;;;;;;5054876;28;20093;-72
2023/08/20 05:51:24;;;;;;;38.92;19.10;;;16.20;99.90;;;;;;5054915;28;20053;-72
2023/08/20 05:53:50;;;;;;;42.30;17.83;;;16.30;99.90;;;;;;5037410;28;20056;-73
2023/08/20 05:56:15;;;;;;;38.67;17.13;;;16.30;99.90;;;;;;5053492;28;20087;-73
2023/08/20 05:58:41;;;;;;;38.20;16.23;;;16.40;99.90;;;;;;5053083;28;20044;-72
2023/08/20 06:01:07;;;;;;;43.20;18.00;;;16.40;99.90;;;;;;5054659;28;20049;-74
2023/08/20 06:03:33;;;;;;;41.38;17.80;;;16.50;99.90;;;;;;5070400;28;20044;-73
2023/08/20 06:05:58;;;;;;;38.03;16.33;;;16.50;99.90;;;;;;5054140;28;20075;-73
2023/08/20 06:08:24;;;;;;;41.07;16.73;;;16.50;99.90;;;;;;5054473;28;20201;-75
2023/08/20 06:10:51;;;;;;;48.00;17.13;;;16.60;99.90;;;;;;5054326;28;20057;-72
2023/08/20 06:13:16;;;;;;;49.22;16.13;;;16.60;99.90;;;;;;5053386;28;20421;-73
2023/08/20 06:15:42;;;;;;;44.23;16.03;;;16.70;99.90;;;;;;5054352;28;20070;-73
2023/08/20 06:18:08;;;;;;;42.53;15.63;;;16.80;99.90;;;;;;5054403;28;20045;-73
2023/08/20 06:20:34;;;;;;;47.47;15.97;;;16.90;99.90;;;;;;5087107;28;20044;-74
2023/08/20 06:22:59;;;;;;;42.77;15.07;;;16.90;99.90;;;;;;5054355;28;20129;-72
2023/08/20 06:25:25;;;;;;;31.23;14.20;;;17.00;99.90;;;;;;5053245;28;20057;-73
2023/08/20 06:27:51;;;;;;;34.13;13.43;;;17.00;99.90;;;;;;5054507;28;20091;-72
2023/08/20 06:30:16;;;;;;;37.00;13.90;;;17.10;99.90;;;;;;5054012;28;20045;-72
2023/08/20 06:32:44;;;;;;;35.07;13.20;;;17.10;99.90;;;;;;5054291;28;20505;-74
2023/08/20 06:35:11;;;;;;;39.33;12.65;;;17.10;99.90;;;;;;5036257;28;20060;-74
2023/08/20 06:37:38;;;;;;;35.33;11.80;;;17.20;99.90;;;;;;5052485;28;20169;-74
2023/08/20 06:40:05;;;;;;;31.95;11.85;;;17.30;99.90;;;;;;5054412;28;20044;-73
2023/08/20 06:42:30;;;;;;;;;;;17.40;99.90;;;;;;5069672;28;20060;-74
2023/08/20 06:44:56;;;;;;;35.23;12.60;;;17.40;99.90;;;;;;5053581;28;19927;-73
2023/08/20 06:47:22;;;;;;;36.00;12.43;;;17.50;99.90;;;;;;5053516;28;20087;-73
2023/08/20 06:49:49;;;;;;;42.33;11.47;;;17.60;99.90;;;;;;5053188;28;20114;-72
2023/08/20 06:52:15;;;;;;;34.40;11.85;;;17.60;99.90;;;;;;5053517;28;20077;-73
2023/08/20 06:54:40;;;;;;;37.50;12.47;;;17.70;99.90;;;;;;5053538;28;20052;-74
2023/08/20 06:57:06;;;;;;;35.57;12.03;;;17.80;99.90;;;;;;5052956;28;20367;-71
2023/08/20 06:59:32;;;;;;;41.47;13.13;;;17.80;99.90;;;;;;5052713;28;20140;-73
2023/08/20 07:01:57;;;;;;;36.33;11.77;;;17.90;99.90;;;;;;5085887;28;20056;-73
2023/08/20 07:04:23;;;;;;;49.17;11.53;;;18.00;99.90;;;;;;5052597;28;20052;-73
2023/08/20 07:06:51;;;;;;;34.73;11.80;;;18.00;99.90;;;;;;5069055;28;20075;-74
2023/08/20 07:09:16;;;;;;;31.85;11.07;;;18.10;99.90;;;;;;5052320;28;20304;-73
2023/08/20 07:11:42;;;;;;;38.40;11.43;;;18.30;99.90;;;;;;5052137;28;20060;-73
2023/08/20 07:14:08;;;;;;;41.20;11.67;;;18.30;99.90;;;;;;5068839;28;20052;-71
2023/08/20 07:16:33;;;;;;;33.20;10.10;;;18.40;99.90;;;;;;5054059;28;20049;-71
2023/08/20 07:18:59;;;;;;;33.53;10.00;;;18.50;99.90;;;;;;5055696;28;20049;-73
2023/08/20 07:21:25;;;;;;;35.20;10.57;;;18.60;99.90;;;;;;5089936;28;20049;-74
2023/08/20 07:23:51;;;;;;;37.23;9.80;;;18.70;99.90;;;;;;5056052;28;20048;-73
2023/08/20 07:26:16;;;;;;;38.87;10.30;;;18.80;99.90;;;;;;5056209;28;20045;-73
2023/08/20 07:28:57;;;;;;;40.73;10.13;;;18.90;99.90;;;;;;5056258;28;20052;-73
2023/08/20 07:31:24;;;;;;;30.33;9.40;;;18.90;99.90;;;;;;5057699;28;20433;-74
2023/08/20 07:33:53;;;;;;;35.20;9.80;;;19.00;99.90;;;;;;5057200;28;20124;-72
2023/08/20 07:36:23;;;;;;;39.97;12.70;;;19.10;99.90;;;;;;5057012;28;20052;-73
2023/08/20 07:38:49;;;;;;;35.40;9.45;;;19.20;99.90;;;;;;5057047;28;20084;-74
2023/08/20 07:41:15;;;;;;;37.35;11.35;;;19.30;99.90;;;;;;5055616;28;20124;-73
2023/08/20 07:43:41;;;;;;;31.83;8.87;;;19.30;99.90;;;;;;5090284;28;20128;-73
2023/08/20 07:46:08;;;;;;;26.43;10.17;;;19.50;99.90;;;;;;5039215;28;20439;-72
2023/08/20 07:48:34;;;;;;;;;;;19.50;99.90;;;;;;5057171;28;20131;-72
2023/08/20 07:51:00;;;;;;;37.58;9.40;;;19.60;99.90;;;;;;5089170;28;19924;-74
2023/08/20 07:53:26;;;;;;;35.50;8.43;;;19.70;99.90;;;;;;5056388;28;20421;-74
2023/08/20 07:55:52;;;;;;;32.20;7.77;;;19.70;99.90;;;;;;5056588;28;20186;-72
2023/08/20 07:58:18;;;;;;;34.77;8.90;;;19.80;99.90;;;;;;5056737;28;20049;-73
2023/08/20 08:00:43;;;;;;;37.93;8.97;;;19.90;99.90;;;;;;5056522;28;20276;-73
2023/08/20 08:03:09;;;;;;;45.87;8.30;;;19.90;99.90;;;;;;5055098;28;20098;-75
2023/08/20 08:05:36;;;;;;;32.60;7.93;;;20.00;99.90;;;;;;5056380;28;20056;-73
2023/08/20 08:08:02;;;;;;;41.40;8.23;;;20.10;99.90;;;;;;5038365;28;20049;-73
2023/08/20 08:10:28;;;;;;;29.77;7.63;;;20.10;99.90;;;;;;5055475;28;20037;-73
2023/08/20 08:12:54;;;;;;;45.80;8.60;;;20.20;99.90;;;;;;5056286;28;20082;-74
2023/08/20 08:15:20;;;;;;;35.50;9.13;;;20.20;99.90;;;;;;5055037;28;20103;-73
2023/08/20 08:17:45;;;;;;;35.30;7.57;;;20.30;99.90;;;;;;5054824;28;20493;-75
2023/08/20 08:20:11;;;;;;;28.67;7.63;;;20.30;99.90;;;;;;5054863;28;20048;-73
2023/08/20 08:22:37;;;;;;;30.67;7.13;;;20.50;99.90;;;;;;5055041;28;20127;-73
2023/08/20 08:25:03;;;;;;;31.77;6.13;;;20.50;99.90;;;;;;5056051;28;20037;-72
2023/08/20 08:27:29;;;;;;;33.83;7.30;;;20.60;99.90;;;;;;5054764;28;20080;-73
2023/08/20 08:29:55;;;;;;;26.38;6.32;;;20.60;99.90;;;;;;5038487;28;20057;-72
2023/08/20 08:32:21;;;;;;;21.47;5.23;;;20.70;99.90;;;;;;5039023;28;20097;-74
2023/08/20 08:34:46;;;;;;;26.73;5.13;;;20.70;99.90;;;;;;5056046;28;20045;-74
2023/08/20 08:37:12;;;;;;;27.13;5.80;;;20.90;99.90;;;;;;5022492;28;20511;-72
2023/08/20 08:39:38;;;;;;;21.17;5.00;;;20.90;99.90;;;;;;5056108;28;20500;-73
2023/08/20 08:42:07;;;;;;;23.43;5.03;;;21.00;99.90;;;;;;5054845;28;20051;-71
2023/08/20 08:44:33;;;;;;;18.52;4.80;;;21.00;99.90;;;;;;5055452;28;20048;-74
2023/08/20 08:46:59;;;;;;;26.77;5.03;;;21.10;99.90;;;;;;5054657;28;20072;-73
2023/08/20 08:49:26;;;;;;;24.42;5.38;;;21.10;99.90;;;;;;5056441;28;20382;-73
2023/08/20 08:51:56;;;;;;;18.00;3.45;;;21.20;99.90;;;;;;5054781;28;20045;-73
2023/08/20 08:54:22;;;;;;;25.25;4.30;;;21.30;99.90;;;;;;5056666;28;20041;-73
2023/08/20 08:56:48;;;;;;;19.80;3.40;;;21.40;99.90;;;;;;5057418;28;20045;-73
2023/08/20 08:59:14;;;;;;;23.63;3.35;;;21.40;99.90;;;;;;5056657;28;20144;-73
2023/08/20 09:01:41;;;;;;;16.00;3.00;;;21.50;99.90;;;;;;5055598;28;20049;-73
2023/08/20 09:04:07;;;;;;;17.50;3.03;;;21.50;99.90;;;;;;5055870;28;20106;-72
2023/08/20 09:06:53;;;;;;;20.45;2.90;;;21.60;99.90;;;;;;5054527;28;20063;-72
2023/08/20 09:09:20;;;;;;;14.13;2.67;;;21.70;99.90;;;;;;5055258;28;20122;-74
2023/08/20 09:11:47;;;;;;;19.35;2.50;;;21.80;99.90;;;;;;5056751;28;20079;-72
2023/08/20 09:14:32;;;;;;;16.20;3.22;;;21.90;99.90;;;;;;5056235;28;20044;-74
2023/08/20 09:17:00;;;;;;;16.37;2.40;;;22.00;99.90;;;;;;5056432;28;20048;-74
2023/08/20 09:19:35;;;;;;;25.17;3.22;;;22.00;99.90;;;;;;5055433;28;20088;-72
2023/08/20 09:22:01;;;;;;;20.58;2.58;;;22.10;99.90;;;;;;5055099;28;20060;-74
2023/08/20 09:24:44;;;;;;;20.75;2.88;;;22.10;99.90;;;;;;5055649;28;20169;-74
2023/08/20 09:27:10;;;;;;;13.52;2.33;;;22.10;99.90;;;;;;5058677;28;20045;-72
2023/08/20 09:29:48;;;;;;;16.65;2.53;;;22.20;99.90;;;;;;5055527;28;20048;-71
2023/08/20 09:32:19;;;;;;;14.98;2.63;;;22.30;99.90;;;;;;5055534;28;20052;-73
2023/08/20 09:34:45;;;;;;;15.18;2.83;;;22.30;99.90;;;;;;5055844;28;20095;-73
2023/08/20 09:37:13;;;;;;;21.40;2.70;;;22.30;99.90;;;;;;5055619;28;20060;-72
2023/08/20 09:39:39;;;;;;;12.82;2.58;;;22.30;99.90;;;;;;5056613;28;20045;-71
2023/08/20 09:42:06;;;;;;;20.08;2.80;;;22.40;99.90;;;;;;5058442;28;20049;-73
2023/08/20 09:44:59;;;;;;;25.88;3.65;;;22.40;99.90;;;;;;5042098;28;20053;-74
2023/08/20 09:47:27;;;;;;;19.40;2.40;;;22.40;99.90;;;;;;5039427;28;20064;-74
2023/08/20 09:49:55;;;;;;;21.40;2.60;;;22.50;99.90;;;;;;5039857;28;20052;-74
2023/08/20 09:53:03;;;;;;;17.50;2.53;;;22.60;99.90;;;;;;5055320;28;20050;-73
2023/08/20 09:55:41;;;;;;;12.20;2.30;;;22.70;99.90;;;;;;5029110;28;20095;-71
2023/08/20 09:58:07;;;;;;;13.13;1.35;;;22.70;99.90;;;;;;5037883;28;20179;-73
2023/08/20 10:00:33;;;;;;;15.15;2.08;;;22.70;99.90;;;;;;5055333;28;20041;-73
2023/08/20 10:03:00;;;;;;;18.17;2.20;;;22.70;99.90;;;;;;5054679;28;20041;-73
2023/08/20 10:05:25;;;;;;;;;;;22.70;99.90;;;;;;5053404;28;20064;-72
2023/08/20 10:07:51;;;;;;;19.85;2.15;;;22.70;99.90;;;;;;5053109;28;19921;-71
2023/08/20 10:10:18;;;;;;;12.00;1.50;;;22.80;99.90;;;;;;5052962;28;20127;-73
2023/08/20 10:12:45;;;;;;;14.88;2.00;;;22.90;99.90;;;;;;5053392;28;20047;-73
2023/08/20 10:15:14;;;;;;;11.98;2.00;;;22.80;99.90;;;;;;5054309;28;20099;-73
2023/08/20 10:17:45;;;;;;;15.13;1.83;;;22.90;99.90;;;;;;5054162;28;20098;-74
2023/08/20 10:20:15;;;;;;;9.43;1.95;;;23.00;99.90;;;;;;5054210;28;20053;-74
2023/08/20 10:22:43;;;;;;;13.23;1.83;;;23.10;99.90;;;;;;5052827;28;20096;-73
2023/08/20 10:25:10;;;;;;;12.10;1.75;;;23.00;99.90;;;;;;5054010;28;20049;-72
2023/08/20 10:27:39;;;;;;;15.48;1.80;;;23.10;99.90;;;;;;5054361;28;20111;-74
2023/08/20 10:30:15;;;;;;;12.40;1.52;;;23.10;99.90;;;;;;5052779;28;20053;-74
2023/08/20 10:32:48;;;;;;;9.85;1.30;;;23.10;99.90;;;;;;5054342;28;20381;-73
2023/08/20 10:35:18;;;;;;;13.60;1.23;;;23.10;99.90;;;;;;5036740;28;20111;-72
2023/08/20 10:38:04;;;;;;;9.82;1.30;;;23.20;99.90;;;;;;5053656;28;20090;-71
2023/08/20 10:40:59;;;;;;;18.50;1.90;;;23.10;99.90;;;;;;5036100;28;20052;-72
2023/08/20 10:43:35;;;;;;;14.02;2.10;;;23.20;99.90;;;;;;5053921;28;20286;-74
2023/08/20 10:46:20;;;;;;;22.77;2.30;;;23.20;99.90;;;;;;5055023;28;20076;-72
2023/08/20 10:48:53;;;;;;;16.05;2.35;;;23.30;99.90;;;;;;5053561;28;20125;-72
2023/08/20 10:51:26;;;;;;;21.50;3.22;;;23.30;99.90;;;;;;5053534;28;20124;-75
2023/08/20 10:54:12;;;;;;;14.50;2.50;;;23.30;99.90;;;;;;5054124;28;20060;-72
2023/08/20 10:56:37;;;;;;;16.45;2.45;;;23.40;99.90;;;;;;5053411;28;20045;-72
2023/08/20 10:59:17;;;;;;;19.07;3.13;;;23.40;99.90;;;;;;5053831;28;20375;-73
2023/08/20 11:01:45;;;;;;;13.18;2.10;;;23.40;99.90;;;;;;5053711;28;20457;-72
2023/08/20 11:04:11;;;;;;;18.65;2.42;;;23.40;99.90;;;;;;5052216;28;20083;-72
2023/08/20 11:06:39;;;;;;;19.73;2.38;;;23.50;99.90;;;;;;5035404;28;20052;-71
2023/08/20 11:09:05;;;;;;;12.70;2.10;;;23.60;99.90;;;;;;5052094;28;20485;-70
2023/08/20 11:11:31;;;;;;;17.42;2.85;;;23.70;99.90;;;;;;5053458;28;20397;-74
2023/08/20 11:14:04;;;;;;;17.55;2.47;;;23.70;99.90;;;;;;5054242;28;20072;-72
2023/08/20 11:16:30;;;;;;;15.27;2.25;;;23.70;99.90;;;;;;5053112;28;20056;-73
2023/08/20 11:18:57;;;;;;;14.50;2.13;;;23.80;99.90;;;;;;5035613;28;20395;-72
2023/08/20 11:21:23;;;;;;;13.23;2.10;;;23.90;99.90;;;;;;5052974;28;20287;-74
2023/08/20 11:23:49;;;;;;;13.67;2.17;;;23.90;99.90;;;;;;5051903;28;20048;-72
2023/08/20 11:26:15;;;;;;;15.37;2.20;;;24.00;99.90;;;;;;5052029;28;20345;-73
2023/08/20 11:28:46;;;;;;;9.43;1.98;;;24.00;99.90;;;;;;5051682;28;20045;-71
2023/08/20 11:31:12;;;;;;;13.63;2.00;;;24.00;99.90;;;;;;5053231;28;20037;-72
2023/08/20 11:33:38;;;;;;;18.40;2.10;;;24.00;99.90;;;;;;5053153;28;20394;-73
2023/08/20 11:36:05;;;;;;;20.10;2.08;;;24.00;99.90;;;;;;5052876;28;20080;-73
2023/08/20 11:38:31;;;;;;;27.45;2.40;;;24.10;99.90;;;;;;5052681;28;20044;-74
2023/08/20 11:40:59;;;;;;;17.33;2.53;;;24.10;99.90;;;;;;5053168;28;20048;-73
2023/08/20 11:43:30;;;;;;;14.70;1.90;;;24.10;99.90;;;;;;5052971;28;20453;-71
2023/08/20 11:45:56;;;;;;;20.70;2.10;;;24.20;99.90;;;;;;5053862;28;20355;-72
2023/08/20 11:48:22;;;;;;;12.85;1.90;;;24.20;99.90;;;;;;5053043;28;20048;-71
2023/08/20 11:50:49;;;;;;;;;;;24.30;99.90;;;;;;5053352;28;20048;-72
2023/08/20 11:53:20;;;;;;;17.52;2.17;;;24.30;99.90;;;;;;5053721;28;20309;-72
2023/08/20 11:55:46;;;;;;;12.77;2.33;;;24.20;99.90;;;;;;5052314;28;20398;-70
2023/08/20 11:58:12;;;;;;;12.23;1.90;;;24.10;99.90;;;;;;5051881;28;20098;-72
2023/08/20 12:00:38;;;;;;;14.23;2.08;;;24.10;99.90;;;;;;5052901;28;20090;-73
2023/08/20 12:03:05;;;;;;;15.90;2.17;;;24.10;99.90;;;;;;5052991;28;20076;-73
2023/08/20 12:05:31;;;;;;;13.68;2.22;;;24.10;99.90;;;;;;5054542;28;20155;-74
2023/08/20 12:08:02;;;;;;;12.35;1.70;;;24.00;99.90;;;;;;5055280;28;20119;-74
2023/08/20 12:10:30;;;;;;;14.55;1.73;;;23.90;99.90;;;;;;5039675;28;20457;-73
2023/08/20 12:12:57;;;;;;;13.95;2.22;;;23.80;99.90;;;;;;5055507;28;20486;-74
2023/08/20 12:15:24;;;;;;;12.27;1.45;;;23.90;99.90;;;;;;5055571;28;20053;-74
2023/08/20 12:18:04;;;;;;;10.25;1.63;;;24.00;99.90;;;;;;5055214;28;20326;-73
2023/08/20 12:20:32;;;;;;;11.75;1.50;;;24.00;99.90;;;;;;5056322;28;20128;-70
2023/08/20 12:23:07;;;;;;;12.32;1.30;;;24.00;99.90;;;;;;5057029;28;20049;-72
2023/08/20 12:25:35;;;;;;;10.32;1.55;;;23.90;99.90;;;;;;5056801;28;20045;-75
2023/08/20 12:28:05;;;;;;;12.95;1.40;;;24.00;99.90;;;;;;5056394;28;20044;-72
2023/08/20 12:30:32;;;;;;;6.38;1.35;;;24.30;99.90;;;;;;5056085;28;20124;-74
2023/08/20 12:32:57;;;;;;;9.35;1.42;;;24.40;99.90;;;;;;5056094;28;20095;-74
2023/08/20 12:35:23;;;;;;;10.90;1.73;;;24.50;99.90;;;;;;5056060;28;20499;-73